createdAt,value
2023-01-12T00:02:01.428Z,19.08
2023-01-12T00:04:30.853Z,20.95
2023-01-12T00:06:59.798Z,16.83
2023-01-12T00:09:28.712Z,20.48
2023-01-12T00:11:56.108Z,23.05
2023-01-12T00:14:22.993Z,23.05
2023-01-12T00:16:50.031Z,23.73
2023-01-12T00:19:20.504Z,15.93
2023-01-12T00:21:59.821Z,25.73
2023-01-12T00:24:35.032Z,13.70
2023-01-12T00:27:07.421Z,12.80
2023-01-12T00:29:35.264Z,18.98
2023-01-12T00:32:02.298Z,18.15
2023-01-12T00:34:30.037Z,16.98
2023-01-12T00:36:57.455Z,16.40
2023-01-12T00:39:24.480Z,21.58
2023-01-12T00:42:10.402Z,17.55
2023-01-12T00:44:56.080Z,21.35
2023-01-12T00:47:23.284Z,18.33
2023-01-12T00:49:50.759Z,22.48
2023-01-12T00:52:35.257Z,20.27
2023-01-12T00:55:02.479Z,14.30
2023-01-12T00:57:29.742Z,17.98
2023-01-12T00:59:59.274Z,14.88
2023-01-12T01:02:29.480Z,16.42
2023-01-12T01:04:56.849Z,20.00
2023-01-12T01:07:24.189Z,19.60
2023-01-12T01:09:51.901Z,22.08
2023-01-12T01:12:19.074Z,22.83
2023-01-12T01:14:48.726Z,18.33
2023-01-12T01:17:16.241Z,22.10
2023-01-12T01:19:43.780Z,17.45
2023-01-12T01:22:12.808Z,28.27
2023-01-12T01:24:40.746Z,19.20
2023-01-12T01:27:07.886Z,21.23
2023-01-12T01:29:35.358Z,20.92
2023-01-12T01:32:02.319Z,16.83
2023-01-12T01:34:29.319Z,19.48
2023-01-12T01:36:56.407Z,21.60
2023-01-12T01:39:23.352Z,22.80
2023-01-12T01:41:50.296Z,18.73
2023-01-12T01:44:29.682Z,18.25
2023-01-12T01:47:00.119Z,18.23
2023-01-12T01:49:29.798Z,16.85
2023-01-12T01:52:07.438Z,19.73
2023-01-12T01:54:47.357Z,16.95
2023-01-12T01:57:15.573Z,27.38
2023-01-12T01:59:49.419Z,18.38
2023-01-12T02:02:17.457Z,22.75
2023-01-12T02:04:45.128Z,20.90
2023-01-12T02:07:12.513Z,27.88
2023-01-12T02:09:40.131Z,14.88
2023-01-12T02:12:26.779Z,17.60
2023-01-12T02:15:12.623Z,31.65
2023-01-12T02:17:57.743Z,17.02
2023-01-12T02:20:52.079Z,21.40
2023-01-12T02:23:59.904Z,20.45
2023-01-12T02:27:15.671Z,23.98
2023-01-12T02:30:03.672Z,16.30
2023-01-12T02:32:52.455Z,19.98
2023-01-12T02:35:29.275Z,17.65
2023-01-12T02:38:33.710Z,23.42
2023-01-12T02:41:42.250Z,24.73
2023-01-12T02:44:32.787Z,17.08
2023-01-12T02:47:06.654Z,25.90
2023-01-12T02:49:42.822Z,15.57
2023-01-12T02:52:15.178Z,20.33
2023-01-12T02:54:48.200Z,16.60
2023-01-12T02:59:50.824Z,18.33
2023-01-12T03:02:22.417Z,22.70
2023-01-12T03:04:49.845Z,19.98
2023-01-12T03:07:40.771Z,16.50
2023-01-12T03:10:21.356Z,20.80
2023-01-12T03:12:51.482Z,20.23
2023-01-12T03:15:20.052Z,22.45
2023-01-12T03:18:00.732Z,31.15
2023-01-12T03:20:39.568Z,27.08
2023-01-12T03:23:20.889Z,19.40
2023-01-12T03:25:51.003Z,18.02
2023-01-12T03:28:20.568Z,20.13
2023-01-12T03:31:01.111Z,26.60
2023-01-12T03:33:28.453Z,25.08
2023-01-12T03:36:22.564Z,10.90
2023-01-12T03:39:06.565Z,17.23
2023-01-12T03:42:22.912Z,16.42
2023-01-12T03:45:29.417Z,20.90
2023-01-12T03:48:04.513Z,21.33
2023-01-12T03:50:41.336Z,20.45
2023-01-12T03:53:09.662Z,24.95
2023-01-12T03:55:38.358Z,22.25
2023-01-12T03:58:06.017Z,22.38
2023-01-12T04:00:32.974Z,24.13
2023-01-12T04:03:18.854Z,15.32
2023-01-12T04:05:46.429Z,20.92
2023-01-12T04:08:16.193Z,21.75
2023-01-12T04:10:43.628Z,24.20
2023-01-12T04:13:10.797Z,20.35
2023-01-12T04:15:42.427Z,23.88
2023-01-12T04:18:10.524Z,28.02
2023-01-12T04:20:38.298Z,24.58
2023-01-12T04:23:06.890Z,20.13
2023-01-12T04:25:35.861Z,21.02
2023-01-12T04:28:04.052Z,18.77
2023-01-12T04:30:34.443Z,24.30
2023-01-12T04:33:08.302Z,25.70
2023-01-12T04:35:35.447Z,16.95
2023-01-12T04:38:08.127Z,18.23
2023-01-12T04:40:35.110Z,12.57
2023-01-12T04:43:02.261Z,24.85
2023-01-12T04:45:33.452Z,19.63
2023-01-12T04:48:11.217Z,18.38
2023-01-12T04:50:39.358Z,19.42
2023-01-12T04:53:09.390Z,13.00
2023-01-12T04:55:39.362Z,18.95
2023-01-12T04:58:06.619Z,22.60
2023-01-12T05:00:34.189Z,15.88
2023-01-12T05:03:02.836Z,21.33
2023-01-12T05:05:32.376Z,19.45
2023-01-12T05:08:19.740Z,17.42
2023-01-12T05:10:51.796Z,24.27
2023-01-12T05:13:19.602Z,21.35
2023-01-12T05:15:46.545Z,24.98
2023-01-12T05:18:13.807Z,20.48
2023-01-12T05:20:40.823Z,19.58
2023-01-12T05:23:07.935Z,17.02
2023-01-12T05:25:34.860Z,21.88
2023-01-12T05:28:02.109Z,20.33
2023-01-12T05:30:31.824Z,21.67
2023-01-12T05:32:59.483Z,19.10
2023-01-12T05:35:26.420Z,20.77
2023-01-12T05:37:56.929Z,22.13
2023-01-12T05:40:24.575Z,14.02
2023-01-12T05:43:10.673Z,26.88
2023-01-12T05:45:37.819Z,19.40
2023-01-12T05:48:06.088Z,17.73
2023-01-12T05:50:33.105Z,20.45
2023-01-12T05:53:00.147Z,20.20
2023-01-12T05:55:27.224Z,25.63
2023-01-12T05:57:54.117Z,17.58
2023-01-12T06:00:21.559Z,19.88
2023-01-12T06:02:48.694Z,17.63
2023-01-12T06:05:15.922Z,20.98
2023-01-12T06:07:42.937Z,14.95
2023-01-12T06:10:11.238Z,13.73
2023-01-12T06:12:56.717Z,20.77
2023-01-12T06:15:23.795Z,17.60
2023-01-12T06:17:50.772Z,16.50
2023-01-12T06:20:17.791Z,15.63
2023-01-12T06:22:45.318Z,15.38
2023-01-12T06:25:13.577Z,13.57
2023-01-12T06:27:40.577Z,18.90
2023-01-12T06:30:09.576Z,23.17
2023-01-12T06:32:37.365Z,14.20
2023-01-12T06:35:17.796Z,27.17
2023-01-12T06:37:45.761Z,14.23
2023-01-12T06:40:13.466Z,18.98
2023-01-12T06:42:42.308Z,17.40
2023-01-12T06:45:11.310Z,13.18
2023-01-12T06:47:52.406Z,16.85
2023-01-12T06:50:19.855Z,13.05
2023-01-12T06:52:46.845Z,15.27
2023-01-12T06:55:14.462Z,13.73
2023-01-12T06:57:41.383Z,15.60
2023-01-12T07:00:09.542Z,15.10
2023-01-12T07:02:36.476Z,8.77
2023-01-12T07:05:03.886Z,15.27
2023-01-12T07:07:31.096Z,16.23
2023-01-12T07:09:58.015Z,5.97
2023-01-12T07:12:25.031Z,14.20
2023-01-12T07:14:52.039Z,6.72
2023-01-12T07:17:18.928Z,12.73
2023-01-12T07:19:46.279Z,8.40
2023-01-12T07:22:13.207Z,11.23
2023-01-12T07:24:40.049Z,9.15
2023-01-12T07:27:07.361Z,6.25
2023-01-12T07:29:34.405Z,5.70
2023-01-12T07:32:02.396Z,7.57
2023-01-12T07:34:29.980Z,8.82
2023-01-12T07:36:57.136Z,5.10
2023-01-12T07:39:24.579Z,5.05
2023-01-12T07:42:09.928Z,3.47
2023-01-12T07:44:37.092Z,5.35
2023-01-12T07:47:04.025Z,3.88
2023-01-12T07:49:30.941Z,6.85
2023-01-12T07:51:57.996Z,5.63
2023-01-12T07:54:25.167Z,10.75
2023-01-12T07:56:52.483Z,7.28
2023-01-12T07:59:20.024Z,4.82
2023-01-12T08:01:47.265Z,8.90
2023-01-12T08:04:14.709Z,7.30
2023-01-12T08:06:41.712Z,8.13
2023-01-12T08:09:08.754Z,7.65
2023-01-12T08:11:35.836Z,7.55
2023-01-12T08:14:04.867Z,8.95
2023-01-12T08:16:39.044Z,3.72
2023-01-12T08:19:25.744Z,13.93
2023-01-12T08:21:58.781Z,8.27
2023-01-12T08:27:04.983Z,8.10
2023-01-12T08:30:00.043Z,6.15
2023-01-12T08:32:30.210Z,12.45
2023-01-12T08:35:01.646Z,9.70
2023-01-12T08:37:31.050Z,10.45
2023-01-12T08:39:58.850Z,14.68
2023-01-12T08:42:28.764Z,20.23
2023-01-12T08:44:56.983Z,11.80
2023-01-12T08:47:30.672Z,12.25
2023-01-12T08:50:00.435Z,20.25
2023-01-12T08:52:32.905Z,14.23
2023-01-12T08:54:59.750Z,16.95
2023-01-12T08:57:27.130Z,14.68
2023-01-12T08:59:54.126Z,13.65
2023-01-12T09:02:21.487Z,15.68
2023-01-12T09:04:48.443Z,20.63
2023-01-12T09:07:17.284Z,11.15
2023-01-12T09:09:44.324Z,16.85
2023-01-12T09:12:11.160Z,14.77
2023-01-12T09:14:39.093Z,15.00
2023-01-12T09:17:07.796Z,12.25
2023-01-12T09:19:34.954Z,10.40
2023-01-12T09:22:02.037Z,9.93
2023-01-12T09:24:29.130Z,12.13
2023-01-12T09:26:56.583Z,10.43
2023-01-12T09:29:23.514Z,10.90
2023-01-12T09:31:50.677Z,16.00
2023-01-12T09:34:19.782Z,9.93
2023-01-12T09:36:47.034Z,14.00
2023-01-12T09:39:32.529Z,16.27
2023-01-12T09:42:18.405Z,11.27
2023-01-12T09:45:10.058Z,15.68
2023-01-12T09:47:55.048Z,13.27
2023-01-12T09:50:32.969Z,11.90
2023-01-12T09:53:14.105Z,9.55
2023-01-12T09:56:02.165Z,12.55
2023-01-12T09:59:16.064Z,8.75
2023-01-12T10:01:45.872Z,5.05
2023-01-12T10:04:13.883Z,9.32
2023-01-12T10:06:41.557Z,6.07
2023-01-12T10:09:18.561Z,5.82
2023-01-12T10:12:09.275Z,5.85
2023-01-12T10:15:18.052Z,6.72
2023-01-12T10:18:13.409Z,5.65
2023-01-12T10:20:43.706Z,4.03
2023-01-12T10:23:17.093Z,4.35
2023-01-12T10:25:55.839Z,3.85
2023-01-12T10:28:31.241Z,2.95
2023-01-12T10:30:59.509Z,3.97
2023-01-12T10:33:29.440Z,5.88
2023-01-12T10:36:16.456Z,6.40
2023-01-12T10:38:52.546Z,4.57
2023-01-12T10:41:22.306Z,2.47
2023-01-12T10:43:55.562Z,7.65
2023-01-12T10:46:26.857Z,5.70
2023-01-12T10:49:16.023Z,7.28
2023-01-12T10:51:58.783Z,3.45
2023-01-12T10:54:28.060Z,8.35
2023-01-12T10:57:24.051Z,6.47
2023-01-12T10:59:59.292Z,5.30
2023-01-12T11:02:29.058Z,5.03
2023-01-12T11:04:56.227Z,5.07
2023-01-12T11:07:29.248Z,3.88
2023-01-12T11:12:34.855Z,4.22
2023-01-12T11:15:22.023Z,4.30
2023-01-12T11:18:31.440Z,2.75
2023-01-12T11:21:10.892Z,2.08
2023-01-12T11:24:20.801Z,3.88
2023-01-12T11:27:02.490Z,4.00
2023-01-12T11:29:56.546Z,3.58
2023-01-12T11:32:45.139Z,2.42
2023-01-12T11:35:31.690Z,2.08
2023-01-12T11:38:04.519Z,2.25
2023-01-12T11:40:34.760Z,2.92
2023-01-12T11:43:42.733Z,1.95
2023-01-12T11:46:52.572Z,1.35
2023-01-12T11:49:58.501Z,4.45
2023-01-12T11:52:27.168Z,3.58
2023-01-12T11:54:54.305Z,2.05
2023-01-12T11:58:11.231Z,2.13
2023-01-12T12:00:52.028Z,3.72
2023-01-12T12:03:55.837Z,4.47
2023-01-12T12:09:31.163Z,1.30
2023-01-12T12:12:05.199Z,1.88
2023-01-12T12:14:50.905Z,1.15
2023-01-12T12:18:08.377Z,0.80
2023-01-12T12:21:13.008Z,1.98
2023-01-12T12:23:46.859Z,2.33
2023-01-12T12:26:29.154Z,1.95
2023-01-12T12:29:26.584Z,0.85
2023-01-12T12:32:27.447Z,1.52
2023-01-12T12:35:20.564Z,1.00
2023-01-12T12:37:56.453Z,1.92
2023-01-12T12:40:55.543Z,2.17
2023-01-12T12:43:53.474Z,0.80
2023-01-12T12:46:42.681Z,0.95
2023-01-12T12:49:19.107Z,0.52
2023-01-12T12:51:49.917Z,2.38
2023-01-12T12:54:20.786Z,1.35
2023-01-12T12:56:50.395Z,0.40
2023-01-12T12:59:40.814Z,1.65
2023-01-12T13:02:53.167Z,1.08
2023-01-12T13:05:48.342Z,2.25
2023-01-12T13:08:26.400Z,1.30
2023-01-12T13:10:59.129Z,1.02
2023-01-12T13:13:37.919Z,0.60
2023-01-12T13:16:20.194Z,1.10
2023-01-12T13:18:52.911Z,1.37
2023-01-12T13:21:58.165Z,2.00
2023-01-12T13:24:40.829Z,1.35
2023-01-12T13:27:50.452Z,0.88
2023-01-12T13:30:25.010Z,1.70
2023-01-12T13:33:25.342Z,1.73
2023-01-12T13:35:52.216Z,0.80
2023-01-12T13:38:37.440Z,2.00
2023-01-12T13:41:10.525Z,1.20
2023-01-12T13:46:21.741Z,1.48
2023-01-12T13:48:51.954Z,3.95
2023-01-12T13:51:40.098Z,1.35
2023-01-12T13:54:15.056Z,2.05
2023-01-12T13:56:43.243Z,1.52
2023-01-12T13:59:18.763Z,2.72
2023-01-12T14:01:48.741Z,4.85
2023-01-12T14:04:19.401Z,0.93
2023-01-12T14:07:23.271Z,2.85
2023-01-12T14:10:27.234Z,1.60
2023-01-12T14:13:05.762Z,2.53
2023-01-12T14:16:00.838Z,1.25
2023-01-12T14:18:43.390Z,4.70
2023-01-12T14:21:29.158Z,1.70
2023-01-12T14:24:14.417Z,15.32
2023-01-12T14:26:41.351Z,2.38
2023-01-12T14:29:11.463Z,5.53
2023-01-12T14:31:44.471Z,3.47
2023-01-12T14:36:51.270Z,2.55
2023-01-12T14:39:23.859Z,3.15
2023-01-12T14:42:14.950Z,3.10
2023-01-12T14:45:13.070Z,3.17
2023-01-12T14:47:41.005Z,2.13
2023-01-12T14:50:13.333Z,0.82
2023-01-12T14:52:43.825Z,2.38
2023-01-12T14:55:39.550Z,3.00
2023-01-12T14:58:18.294Z,2.33
2023-01-12T15:00:48.035Z,3.28
2023-01-12T15:03:35.105Z,1.48
2023-01-12T15:06:06.782Z,2.22
2023-01-12T15:08:34.789Z,1.83
2023-01-12T15:11:10.033Z,2.35
2023-01-12T15:13:38.195Z,6.43
2023-01-12T15:16:25.113Z,3.53
2023-01-12T15:19:10.614Z,1.77
2023-01-12T15:21:58.415Z,2.38
2023-01-12T15:24:53.572Z,3.35
2023-01-12T15:27:23.308Z,2.58
2023-01-12T15:29:51.180Z,1.27
2023-01-12T15:32:46.428Z,1.95
2023-01-12T15:35:21.759Z,4.93
2023-01-12T15:37:48.904Z,3.88
2023-01-12T15:40:17.550Z,3.65
2023-01-12T15:42:45.020Z,2.95
2023-01-12T15:45:18.922Z,1.95
2023-01-12T15:47:46.905Z,3.78
2023-01-12T15:50:14.084Z,4.15
2023-01-12T15:52:41.155Z,8.27
2023-01-12T15:55:21.985Z,3.13
2023-01-12T15:57:51.607Z,2.15
2023-01-12T16:00:23.038Z,2.40
2023-01-12T16:02:52.783Z,3.85
2023-01-12T16:05:22.984Z,2.13
2023-01-12T16:07:50.480Z,2.42
2023-01-12T16:10:19.228Z,4.57
2023-01-12T16:12:48.044Z,2.22
2023-01-12T16:15:24.066Z,3.17
2023-01-12T16:17:52.070Z,2.45
2023-01-12T16:20:20.643Z,2.90
2023-01-12T16:22:48.333Z,2.60
2023-01-12T16:25:16.033Z,2.97
2023-01-12T16:27:43.751Z,1.98
2023-01-12T16:30:16.168Z,2.95
2023-01-12T16:32:47.160Z,3.15
2023-01-12T16:35:15.467Z,2.95
2023-01-12T16:37:43.006Z,1.95
2023-01-12T16:40:11.054Z,2.03
2023-01-12T16:42:38.025Z,3.85
2023-01-12T16:45:06.272Z,3.15
2023-01-12T16:47:33.468Z,2.38
2023-01-12T16:50:00.584Z,3.15
2023-01-12T16:52:27.714Z,2.92
2023-01-12T16:54:54.592Z,3.42
2023-01-12T16:57:21.585Z,3.35
2023-01-12T16:59:49.624Z,3.88
2023-01-12T17:02:18.155Z,3.28
2023-01-12T17:04:45.790Z,3.83
2023-01-12T17:07:13.704Z,3.10
2023-01-12T17:09:41.416Z,2.40
2023-01-12T17:12:08.968Z,2.75
2023-01-12T17:14:36.440Z,3.28
2023-01-12T17:17:08.410Z,2.28
2023-01-12T17:19:38.870Z,3.38
2023-01-12T17:22:08.445Z,5.28
2023-01-12T17:24:40.014Z,2.08
2023-01-12T17:27:10.358Z,5.47
2023-01-12T17:29:38.069Z,4.10
2023-01-12T17:32:06.824Z,5.82
2023-01-12T17:34:38.765Z,3.63
2023-01-12T17:37:09.809Z,2.30
2023-01-12T17:39:43.257Z,3.30
2023-01-12T17:42:35.963Z,3.88
2023-01-12T17:45:04.543Z,9.67
2023-01-12T17:47:31.713Z,3.47
2023-01-12T17:49:59.178Z,2.13
2023-01-12T17:52:26.403Z,3.67
2023-01-12T17:54:53.690Z,4.70
2023-01-12T17:57:22.211Z,3.30
2023-01-12T17:59:50.156Z,4.30
2023-01-12T18:02:18.588Z,2.85
2023-01-12T18:04:47.118Z,2.83
2023-01-12T18:07:14.627Z,1.85
2023-01-12T18:09:42.063Z,3.53
2023-01-12T18:12:10.813Z,3.92
2023-01-12T18:14:38.211Z,3.17
2023-01-12T18:17:05.222Z,2.38
2023-01-12T18:19:33.721Z,4.38
2023-01-12T18:22:06.054Z,2.88
2023-01-12T18:24:34.501Z,3.75
2023-01-12T18:27:03.252Z,2.88
2023-01-12T18:29:30.403Z,1.92
2023-01-12T18:31:57.349Z,5.22
2023-01-12T18:34:24.384Z,6.00
2023-01-12T18:36:51.646Z,3.63
2023-01-12T18:39:22.555Z,4.00
2023-01-12T18:42:09.485Z,9.45
2023-01-12T18:44:38.324Z,5.95
2023-01-12T18:47:24.627Z,4.97
2023-01-12T18:49:54.050Z,6.53
2023-01-12T18:52:39.283Z,7.53
2023-01-12T18:55:07.400Z,4.65
2023-01-12T18:57:35.121Z,7.00
2023-01-12T19:00:17.432Z,2.83
2023-01-12T19:02:45.019Z,7.57
2023-01-12T19:05:14.377Z,3.72
2023-01-12T19:08:03.012Z,2.85
2023-01-12T19:10:31.146Z,4.82
2023-01-12T19:13:18.089Z,6.57
2023-01-12T19:16:03.647Z,3.28
2023-01-12T19:18:30.745Z,3.50
2023-01-12T19:21:16.077Z,6.68
2023-01-12T19:24:01.717Z,3.55
2023-01-12T19:26:47.214Z,4.45
2023-01-12T19:29:14.190Z,3.60
2023-01-12T19:31:41.286Z,3.28
2023-01-12T19:34:08.419Z,5.00
2023-01-12T19:36:36.878Z,6.00
2023-01-12T19:39:06.803Z,6.57
2023-01-12T19:41:52.993Z,6.68
2023-01-12T19:44:20.095Z,5.38
2023-01-12T19:46:47.305Z,7.97
2023-01-12T19:49:16.862Z,4.90
2023-01-12T19:51:46.087Z,3.67
2023-01-12T19:54:13.458Z,2.97
2023-01-12T19:56:40.582Z,2.45
2023-01-12T19:59:07.473Z,2.97
2023-01-12T20:01:34.636Z,11.57
2023-01-12T20:04:01.902Z,5.00
2023-01-12T20:06:29.074Z,6.57
2023-01-12T20:08:56.154Z,6.63
2023-01-12T20:11:22.987Z,5.93
2023-01-12T20:13:50.420Z,7.45
2023-01-12T20:16:17.903Z,4.90
2023-01-12T20:18:44.801Z,4.55
2023-01-12T20:21:12.756Z,5.53
2023-01-12T20:23:39.902Z,7.03
2023-01-12T20:26:11.297Z,5.30
2023-01-12T20:28:38.480Z,6.10
2023-01-12T20:31:16.761Z,7.60
2023-01-12T20:33:44.051Z,5.85
2023-01-12T20:36:13.401Z,5.90
2023-01-12T20:38:41.400Z,6.03
2023-01-12T20:41:10.389Z,7.78
2023-01-12T20:43:37.646Z,7.10
2023-01-12T20:46:13.512Z,6.30
2023-01-12T20:48:42.017Z,5.50
2023-01-12T20:51:15.161Z,3.83
2023-01-12T20:53:42.800Z,6.07
2023-01-12T20:56:10.604Z,4.10
2023-01-12T20:58:37.760Z,7.47
2023-01-12T21:01:15.726Z,4.05
2023-01-12T21:03:44.417Z,4.00
2023-01-12T21:06:20.206Z,5.80
2023-01-12T21:08:48.359Z,7.80
2023-01-12T21:11:19.849Z,11.05
2023-01-12T21:13:46.929Z,4.60
2023-01-12T21:16:18.381Z,7.90
2023-01-12T21:18:47.101Z,11.15
2023-01-12T21:21:14.482Z,7.95
2023-01-12T21:23:41.448Z,9.77
2023-01-12T21:26:11.033Z,6.07
2023-01-12T21:28:40.238Z,6.85
2023-01-12T21:31:11.059Z,6.20
2023-01-12T21:33:38.658Z,8.98
2023-01-12T21:36:06.265Z,8.57
2023-01-12T21:38:33.433Z,8.35
2023-01-12T21:41:03.621Z,10.02
2023-01-12T21:43:31.491Z,11.52
2023-01-12T21:46:06.573Z,8.50
2023-01-12T21:48:33.756Z,12.95
2023-01-12T21:51:07.413Z,10.07
2023-01-12T21:53:35.554Z,11.38
2023-01-12T21:56:05.428Z,8.43
2023-01-12T21:58:35.673Z,10.07
2023-01-12T22:01:14.670Z,9.15
2023-01-12T22:03:42.373Z,7.85
2023-01-12T22:06:12.417Z,6.53
2023-01-12T22:08:41.644Z,11.77
2023-01-12T22:11:15.139Z,9.30
2023-01-12T22:13:43.617Z,10.10
2023-01-12T22:16:13.876Z,10.02
2023-01-12T22:18:46.870Z,4.82
2023-01-12T22:23:40.952Z,9.98
2023-01-12T22:26:11.274Z,7.95
2023-01-12T22:28:42.859Z,6.72
2023-01-12T22:31:14.013Z,8.15
2023-01-12T22:33:45.885Z,6.30
2023-01-12T22:36:14.655Z,4.05
2023-01-12T22:38:42.358Z,6.30
2023-01-12T22:41:12.199Z,5.53
2023-01-12T22:43:42.867Z,7.93
2023-01-12T22:46:15.810Z,5.38
2023-01-12T22:48:43.148Z,5.95
2023-01-12T22:51:10.248Z,11.52
2023-01-12T22:53:37.362Z,9.13
2023-01-12T22:56:05.531Z,7.72
2023-01-12T22:58:32.770Z,5.03
2023-01-12T23:01:06.133Z,5.78
2023-01-12T23:03:34.983Z,12.85
2023-01-12T23:06:02.995Z,6.80
2023-01-12T23:08:30.470Z,5.78
2023-01-12T23:11:20.415Z,3.10
2023-01-12T23:13:48.116Z,7.80
2023-01-12T23:16:18.581Z,6.22
2023-01-12T23:18:47.093Z,4.10
2023-01-12T23:21:18.506Z,6.75
2023-01-12T23:24:00.309Z,5.13
2023-01-12T23:26:32.924Z,5.38
2023-01-12T23:29:02.874Z,6.53
2023-01-12T23:31:33.511Z,6.50
2023-01-12T23:34:01.401Z,4.28
2023-01-12T23:36:30.339Z,4.43
2023-01-12T23:39:04.322Z,4.85
2023-01-12T23:41:35.422Z,11.45
2023-01-12T23:44:05.183Z,2.63
2023-01-12T23:46:37.449Z,7.22
2023-01-12T23:49:05.330Z,5.10
2023-01-12T23:51:32.957Z,4.78
2023-01-12T23:54:02.150Z,7.25
2023-01-12T23:56:32.357Z,7.70
2023-01-12T23:58:59.920Z,4.75
